createdAt,value
2019-05-05T00:01:30.067Z,94.95
2019-05-05T00:04:08.482Z,95.12
2019-05-05T00:06:41.475Z,95.16
2019-05-05T00:09:14.743Z,95.01
2019-05-05T00:12:01.569Z,94.94
2019-05-05T00:14:36.829Z,94.90
2019-05-05T00:17:26.147Z,94.98
2019-05-05T00:19:58.994Z,95.05
2019-05-05T00:22:32.066Z,95.23
2019-05-05T00:25:06.106Z,95.26
2019-05-05T00:27:38.788Z,95.38
2019-05-05T00:30:11.643Z,95.32
2019-05-05T00:32:44.347Z,95.36
2019-05-05T00:35:18.210Z,95.32
2019-05-05T00:37:50.993Z,95.33
2019-05-05T00:40:24.785Z,95.32
2019-05-05T00:42:57.789Z,95.34
2019-05-05T00:45:32.006Z,95.44
2019-05-05T00:48:12.564Z,95.34
2019-05-05T00:50:45.344Z,95.32
2019-05-05T00:53:18.130Z,95.23
2019-05-05T00:55:51.113Z,95.22
2019-05-05T00:58:24.779Z,95.47
2019-05-05T01:01:15.008Z,95.58
2019-05-05T01:03:47.790Z,95.63
2019-05-05T01:06:25.584Z,95.58
2019-05-05T01:08:58.775Z,95.57
2019-05-05T01:11:31.561Z,95.53
2019-05-05T01:14:06.390Z,95.56
2019-05-05T01:16:39.479Z,95.58
2019-05-05T01:19:14.902Z,95.69
2019-05-05T01:21:47.702Z,95.81
2019-05-05T01:24:21.103Z,95.66
2019-05-05T01:26:55.150Z,95.55
2019-05-05T01:29:28.913Z,95.42
2019-05-05T01:32:05.055Z,95.35
2019-05-05T01:34:45.742Z,95.45
2019-05-05T01:37:22.824Z,95.41
2019-05-05T01:39:55.499Z,95.35
2019-05-05T01:42:28.285Z,95.20
2019-05-05T01:45:04.546Z,94.91
2019-05-05T01:47:37.436Z,94.64
2019-05-05T01:50:18.412Z,94.46
2019-05-05T01:52:45.149Z,94.40
2019-05-05T01:55:18.339Z,94.14
2019-05-05T01:57:54.224Z,93.96
2019-05-05T02:00:26.967Z,93.92
2019-05-05T02:03:00.472Z,94.17
2019-05-05T02:05:34.832Z,94.35
2019-05-05T02:08:07.978Z,94.43
2019-05-05T02:10:40.887Z,94.68
2019-05-05T02:13:16.050Z,94.87
2019-05-05T02:15:48.680Z,95.10
2019-05-05T02:18:21.459Z,95.29
2019-05-05T02:21:09.090Z,95.48
2019-05-05T02:23:42.184Z,95.56
2019-05-05T02:26:15.403Z,95.57
2019-05-05T02:29:04.905Z,95.69
2019-05-05T02:31:56.566Z,95.73
2019-05-05T02:34:31.008Z,95.79
2019-05-05T02:37:05.415Z,95.83
2019-05-05T02:39:45.064Z,95.89
2019-05-05T02:42:14.619Z,95.88
2019-05-05T02:44:49.585Z,95.83
2019-05-05T02:47:45.715Z,95.74
2019-05-05T02:50:19.539Z,95.73
2019-05-05T02:52:53.587Z,95.71
2019-05-05T02:55:27.033Z,95.83
2019-05-05T02:58:00.634Z,95.84
2019-05-05T03:00:50.918Z,95.78
2019-05-05T03:03:24.211Z,95.73
2019-05-05T03:05:57.508Z,95.53
2019-05-05T03:08:33.507Z,95.42
2019-05-05T03:11:07.579Z,95.48
2019-05-05T03:13:44.239Z,95.69
2019-05-05T03:16:23.874Z,95.80
2019-05-05T03:18:57.703Z,95.89
2019-05-05T03:21:30.685Z,95.94
2019-05-05T03:24:05.105Z,95.93
2019-05-05T03:26:38.500Z,95.90
2019-05-05T03:29:13.831Z,95.80
2019-05-05T03:31:47.142Z,95.86
2019-05-05T03:34:23.813Z,95.86
2019-05-05T03:36:56.795Z,95.85
2019-05-05T03:39:34.021Z,95.81
2019-05-05T03:42:13.848Z,95.77
2019-05-05T03:44:48.857Z,95.74
2019-05-05T03:47:24.710Z,95.72
2019-05-05T03:49:58.519Z,95.64
2019-05-05T03:52:34.627Z,95.48
2019-05-05T03:55:09.319Z,95.41
2019-05-05T03:57:44.469Z,95.40
2019-05-05T04:00:25.000Z,95.39
2019-05-05T04:02:59.625Z,95.37
2019-05-05T04:05:34.167Z,95.41
2019-05-05T04:08:08.060Z,95.42
2019-05-05T04:10:43.940Z,95.36
2019-05-05T04:13:18.124Z,95.30
2019-05-05T04:16:08.826Z,95.24
2019-05-05T04:18:43.649Z,95.12
2019-05-05T04:21:29.909Z,95.08
2019-05-05T04:23:53.382Z,95.01
2019-05-05T04:26:25.697Z,94.83
2019-05-05T04:28:58.680Z,94.68
2019-05-05T04:31:31.453Z,94.57
2019-05-05T04:34:04.307Z,94.50
2019-05-05T04:36:37.117Z,94.31
2019-05-05T04:39:09.902Z,94.37
2019-05-05T04:41:44.055Z,94.34
2019-05-05T04:44:18.033Z,94.44
2019-05-05T04:46:54.604Z,94.53
2019-05-05T04:49:27.172Z,94.43
2019-05-05T04:52:16.953Z,94.39
2019-05-05T04:54:55.471Z,94.27
2019-05-05T04:57:27.533Z,94.20
2019-05-05T05:00:01.855Z,94.09
2019-05-05T05:02:53.893Z,94.03
2019-05-05T05:05:29.633Z,93.91
2019-05-05T05:08:03.715Z,93.70
2019-05-05T05:10:37.860Z,93.55
2019-05-05T05:13:10.537Z,93.25
2019-05-05T05:15:44.654Z,92.82
2019-05-05T05:18:18.209Z,92.84
2019-05-05T05:20:51.034Z,92.35
2019-05-05T05:23:24.674Z,92.41
2019-05-05T05:25:57.930Z,92.31
2019-05-05T05:28:30.709Z,91.42
2019-05-05T05:31:03.911Z,91.41
2019-05-05T05:33:37.091Z,90.90
2019-05-05T05:36:10.898Z,90.13
2019-05-05T05:38:45.212Z,89.48
2019-05-05T05:41:19.633Z,89.05
2019-05-05T05:43:54.216Z,89.29
2019-05-05T05:46:28.675Z,88.76
2019-05-05T05:49:01.046Z,88.27
2019-05-05T05:51:34.254Z,88.14
2019-05-05T05:54:07.023Z,87.98
2019-05-05T05:56:40.109Z,87.86
2019-05-05T05:59:14.107Z,87.79
2019-05-05T06:01:47.005Z,86.26
2019-05-05T06:04:19.786Z,87.17
2019-05-05T06:06:54.378Z,86.27
2019-05-05T06:09:27.097Z,84.84
2019-05-05T06:11:59.880Z,84.65
2019-05-05T06:14:34.072Z,84.02
2019-05-05T06:17:07.031Z,84.05
2019-05-05T06:19:39.653Z,83.01
2019-05-05T06:22:15.160Z,82.39
2019-05-05T06:24:46.602Z,82.40
2019-05-05T06:27:19.352Z,80.88
2019-05-05T06:29:54.150Z,80.16
2019-05-05T06:32:26.426Z,79.42
2019-05-05T06:34:59.042Z,78.38
2019-05-05T06:37:31.617Z,78.96
2019-05-05T06:40:06.814Z,78.66
2019-05-05T06:42:57.108Z,79.01
2019-05-05T06:45:34.287Z,78.04
2019-05-05T06:48:07.975Z,76.52
2019-05-05T06:50:41.275Z,74.72
2019-05-05T06:53:13.957Z,75.99
2019-05-05T06:55:46.636Z,72.30
2019-05-05T06:58:19.313Z,73.09
2019-05-05T07:00:54.155Z,73.27
2019-05-05T07:03:26.268Z,73.36
2019-05-05T07:05:59.001Z,74.07
2019-05-05T07:08:34.758Z,70.57
2019-05-05T07:11:09.505Z,69.80
2019-05-05T07:13:44.312Z,67.49
2019-05-05T07:16:17.193Z,64.34
2019-05-05T07:18:49.861Z,68.11
2019-05-05T07:21:24.546Z,63.66
2019-05-05T07:23:57.817Z,65.05
2019-05-05T07:26:30.571Z,66.72
2019-05-05T07:29:04.531Z,63.53
2019-05-05T07:31:39.073Z,64.19
2019-05-05T07:34:13.672Z,62.69
2019-05-05T07:36:48.046Z,63.67
2019-05-05T07:39:20.724Z,64.10
2019-05-05T07:41:54.321Z,62.96
2019-05-05T07:44:29.767Z,62.91
2019-05-05T07:47:03.526Z,62.32
2019-05-05T07:49:35.740Z,60.09
2019-05-05T07:52:08.436Z,61.12
2019-05-05T07:54:41.034Z,61.51
2019-05-05T07:57:14.651Z,55.24
2019-05-05T07:59:47.486Z,59.30
2019-05-05T08:02:23.513Z,54.92
2019-05-05T08:04:57.435Z,58.37
2019-05-05T08:07:31.560Z,55.03
2019-05-05T08:10:05.563Z,52.96
2019-05-05T08:12:38.847Z,52.95
2019-05-05T08:15:11.747Z,56.08
2019-05-05T08:17:53.928Z,53.41
2019-05-05T08:20:31.327Z,51.84
2019-05-05T08:23:04.639Z,53.75
2019-05-05T08:25:40.885Z,52.72
2019-05-05T08:28:31.396Z,50.25
2019-05-05T08:31:08.261Z,49.71
2019-05-05T08:33:40.951Z,48.56
2019-05-05T08:36:14.807Z,48.96
2019-05-05T08:38:47.544Z,50.60
2019-05-05T08:41:20.204Z,50.70
2019-05-05T08:43:54.304Z,47.26
2019-05-05T08:46:27.108Z,49.17
2019-05-05T08:48:59.890Z,47.59
2019-05-05T08:51:33.921Z,47.98
2019-05-05T08:54:07.187Z,46.63
2019-05-05T08:56:39.866Z,47.41
2019-05-05T08:59:14.312Z,47.03
2019-05-05T09:01:47.780Z,46.46
2019-05-05T09:04:20.405Z,49.60
2019-05-05T09:06:54.313Z,47.61
2019-05-05T09:09:27.162Z,47.97
2019-05-05T09:11:59.841Z,45.18
2019-05-05T09:14:34.414Z,44.09
2019-05-05T09:17:06.874Z,44.18
2019-05-05T09:19:40.631Z,45.60
2019-05-05T09:22:14.024Z,44.88
2019-05-05T09:24:57.568Z,44.55
2019-05-05T09:27:34.395Z,45.91
2019-05-05T09:30:09.905Z,46.16
2019-05-05T09:32:43.921Z,46.09
2019-05-05T09:35:16.772Z,44.61
2019-05-05T09:37:49.771Z,44.43
2019-05-05T09:40:26.845Z,45.33
2019-05-05T09:42:59.533Z,43.30
2019-05-05T09:45:33.659Z,44.50
2019-05-05T09:48:06.781Z,42.88
2019-05-05T09:50:39.402Z,43.77
2019-05-05T09:53:14.530Z,44.89
2019-05-05T09:55:47.425Z,44.30
2019-05-05T09:58:20.111Z,42.95
2019-05-05T10:00:54.589Z,43.71
2019-05-05T10:03:27.755Z,43.19
2019-05-05T10:06:00.394Z,41.91
2019-05-05T10:08:34.094Z,43.42
2019-05-05T10:11:06.889Z,43.18
2019-05-05T10:13:39.505Z,43.03
2019-05-05T10:16:13.850Z,42.93
2019-05-05T10:18:46.449Z,41.76
2019-05-05T10:21:19.130Z,41.66
2019-05-05T10:23:54.040Z,41.17
2019-05-05T10:26:27.045Z,40.20
2019-05-05T10:29:01.244Z,40.31
2019-05-05T10:31:34.661Z,40.62
2019-05-05T10:34:09.181Z,41.56
2019-05-05T10:36:41.864Z,40.55
2019-05-05T10:39:33.467Z,38.99
2019-05-05T10:42:06.466Z,39.62
2019-05-05T10:44:39.764Z,38.60
2019-05-05T10:47:13.747Z,39.92
2019-05-05T10:49:46.668Z,38.83
2019-05-05T10:52:19.348Z,39.91
2019-05-05T10:54:54.817Z,38.57
2019-05-05T10:57:28.530Z,38.72
2019-05-05T11:00:10.123Z,38.95
2019-05-05T11:02:35.581Z,39.60
2019-05-05T11:05:11.130Z,38.72
2019-05-05T11:07:44.217Z,38.71
2019-05-05T11:10:21.411Z,37.77
2019-05-05T11:12:54.082Z,36.76
2019-05-05T11:15:26.766Z,37.39
2019-05-05T11:17:59.543Z,37.83
2019-05-05T11:20:34.009Z,38.13
2019-05-05T11:23:06.854Z,37.53
2019-05-05T11:25:39.469Z,36.92
2019-05-05T11:28:12.318Z,37.99
2019-05-05T11:30:48.275Z,37.32
2019-05-05T11:33:25.456Z,37.61
2019-05-05T11:36:15.441Z,38.13
2019-05-05T11:38:48.314Z,37.31
2019-05-05T11:41:21.604Z,37.31
2019-05-05T11:43:55.008Z,37.08
2019-05-05T11:46:28.298Z,34.94
2019-05-05T11:49:00.978Z,33.59
2019-05-05T11:51:34.336Z,34.87
2019-05-05T11:54:07.062Z,35.17
2019-05-05T11:56:39.756Z,35.37
2019-05-05T11:59:14.334Z,37.24
2019-05-05T12:01:47.659Z,36.63
2019-05-05T12:04:20.636Z,35.30
2019-05-05T12:06:54.559Z,35.89
2019-05-05T12:09:30.100Z,35.04
2019-05-05T12:12:03.792Z,35.45
2019-05-05T12:14:36.689Z,35.43
2019-05-05T12:17:09.369Z,34.33
2019-05-05T12:19:43.492Z,34.09
2019-05-05T12:22:16.573Z,35.66
2019-05-05T12:24:50.481Z,33.41
2019-05-05T12:27:24.720Z,34.53
2019-05-05T12:29:57.668Z,36.34
2019-05-05T12:32:31.395Z,36.65
2019-05-05T12:35:04.300Z,35.59
2019-05-05T12:37:38.374Z,35.84
2019-05-05T12:40:11.145Z,32.40
2019-05-05T12:42:44.448Z,31.02
2019-05-05T12:45:20.184Z,27.58
2019-05-05T12:48:10.700Z,33.77
2019-05-05T12:50:44.259Z,29.69
2019-05-05T12:53:17.185Z,29.25
2019-05-05T12:55:51.078Z,28.29
2019-05-05T12:58:23.774Z,30.99
2019-05-05T13:01:14.435Z,30.76
2019-05-05T13:03:47.250Z,32.95
2019-05-05T13:06:19.921Z,33.71
2019-05-05T13:08:52.722Z,34.99
2019-05-05T13:11:25.493Z,34.64
2019-05-05T13:13:58.179Z,31.83
2019-05-05T13:16:31.824Z,30.17
2019-05-05T13:19:06.038Z,28.58
2019-05-05T13:21:44.271Z,29.54
2019-05-05T13:24:16.763Z,28.35
2019-05-05T13:27:10.699Z,28.57
2019-05-05T13:29:44.266Z,25.98
2019-05-05T13:32:16.774Z,27.84
2019-05-05T13:34:49.409Z,27.68
2019-05-05T13:37:24.454Z,28.72
2019-05-05T13:39:57.122Z,25.69
2019-05-05T13:42:30.503Z,25.28
2019-05-05T13:45:03.935Z,26.37
2019-05-05T13:47:36.713Z,28.25
2019-05-05T13:50:14.134Z,31.07
2019-05-05T13:52:46.760Z,30.90
2019-05-05T13:55:19.839Z,30.92
2019-05-05T13:57:52.518Z,30.88
2019-05-05T14:00:25.671Z,29.04
2019-05-05T14:02:58.593Z,30.53
2019-05-05T14:05:31.290Z,31.30
2019-05-05T14:08:04.255Z,30.64
2019-05-05T14:10:37.861Z,30.25
2019-05-05T14:13:10.754Z,29.55
2019-05-05T14:15:44.112Z,27.12
2019-05-05T14:18:18.662Z,25.34
2019-05-05T14:20:51.348Z,23.99
2019-05-05T14:23:24.636Z,25.52
2019-05-05T14:25:57.322Z,26.02
2019-05-05T14:28:29.999Z,28.14
2019-05-05T14:31:16.294Z,29.16
2019-05-05T14:33:50.623Z,29.60
2019-05-05T14:36:25.859Z,30.45
2019-05-05T14:38:59.404Z,32.18
2019-05-05T14:41:32.178Z,31.98
2019-05-05T14:44:04.908Z,32.09
2019-05-05T14:46:37.700Z,31.79
2019-05-05T14:49:10.995Z,32.41
2019-05-05T14:51:44.679Z,33.28
2019-05-05T14:54:17.988Z,33.51
2019-05-05T14:56:51.469Z,33.23
2019-05-05T14:59:24.771Z,33.52
2019-05-05T15:01:58.058Z,33.07
2019-05-05T15:04:34.482Z,33.76
2019-05-05T15:07:09.057Z,34.38
2019-05-05T15:09:44.083Z,34.15
2019-05-05T15:12:30.492Z,34.43
2019-05-05T15:15:03.958Z,34.48
2019-05-05T15:17:38.730Z,33.87
2019-05-05T15:20:13.959Z,33.30
2019-05-05T15:22:46.943Z,34.63
2019-05-05T15:25:20.901Z,36.60
2019-05-05T15:27:54.214Z,35.47
2019-05-05T15:30:27.331Z,32.62
2019-05-05T15:33:00.233Z,35.21
2019-05-05T15:35:33.962Z,35.26
2019-05-05T15:38:06.973Z,35.18
2019-05-05T15:40:39.653Z,34.98
2019-05-05T15:43:14.169Z,34.03
2019-05-05T15:45:48.960Z,32.50
2019-05-05T15:48:21.923Z,33.42
2019-05-05T15:50:54.709Z,33.29
2019-05-05T15:53:27.387Z,33.19
2019-05-05T15:56:00.839Z,33.79
2019-05-05T15:58:34.209Z,34.49
2019-05-05T16:01:07.324Z,34.01
2019-05-05T16:03:40.048Z,34.39
2019-05-05T16:06:14.272Z,35.05
2019-05-05T16:08:47.157Z,35.54
2019-05-05T16:11:20.807Z,37.07
2019-05-05T16:13:54.474Z,36.37
2019-05-05T16:16:36.734Z,36.37
2019-05-05T16:19:28.093Z,36.93
2019-05-05T16:22:03.904Z,36.66
2019-05-05T16:24:38.563Z,37.22
2019-05-05T16:27:21.723Z,34.39
2019-05-05T16:29:50.570Z,31.17
2019-05-05T16:32:24.852Z,27.01
2019-05-05T16:34:59.447Z,23.86
2019-05-05T16:37:34.598Z,24.40
2019-05-05T16:40:10.610Z,22.49
2019-05-05T16:42:43.992Z,22.73
2019-05-05T16:45:18.984Z,22.09
2019-05-05T16:47:51.723Z,22.15
2019-05-05T16:50:25.522Z,22.80
2019-05-05T16:53:03.961Z,22.88
2019-05-05T16:55:38.365Z,22.80
2019-05-05T16:58:13.778Z,22.06
2019-05-05T17:00:47.509Z,21.87
2019-05-05T17:03:20.173Z,21.85
2019-05-05T17:05:54.568Z,21.79
2019-05-05T17:08:27.877Z,22.46
2019-05-05T17:11:03.659Z,23.14
2019-05-05T17:13:40.717Z,23.58
2019-05-05T17:16:14.686Z,24.19
2019-05-05T17:18:49.777Z,26.07
2019-05-05T17:21:22.760Z,26.75
2019-05-05T17:23:55.486Z,28.57
2019-05-05T17:26:28.118Z,29.84
2019-05-05T17:29:01.197Z,29.91
2019-05-05T17:31:34.023Z,30.74
2019-05-05T17:34:18.923Z,31.42
2019-05-05T17:36:56.363Z,31.18
2019-05-05T17:39:30.663Z,31.61
2019-05-05T17:42:05.586Z,32.46
2019-05-05T17:44:55.680Z,32.09
2019-05-05T17:47:39.624Z,32.54
2019-05-05T17:50:18.655Z,33.79
2019-05-05T17:53:11.302Z,34.06
2019-05-05T17:55:44.438Z,34.78
2019-05-05T17:58:17.268Z,35.42
2019-05-05T18:00:51.588Z,35.72
2019-05-05T18:03:24.868Z,36.52
2019-05-05T18:06:09.348Z,36.42
2019-05-05T18:08:46.260Z,36.88
2019-05-05T18:11:18.632Z,37.55
2019-05-05T18:13:59.860Z,38.21
2019-05-05T18:16:33.907Z,38.81
2019-05-05T18:19:06.905Z,39.36
2019-05-05T18:21:40.780Z,40.47
2019-05-05T18:24:13.786Z,41.15
2019-05-05T18:26:46.685Z,40.81
2019-05-05T18:29:20.022Z,41.94
2019-05-05T18:31:53.668Z,42.43
2019-05-05T18:34:27.434Z,43.44
2019-05-05T18:37:00.123Z,44.42
2019-05-05T18:39:34.315Z,45.27
2019-05-05T18:42:20.737Z,47.20
2019-05-05T18:44:55.662Z,48.35
2019-05-05T18:47:28.382Z,49.31
2019-05-05T18:50:00.974Z,50.14
2019-05-05T18:52:34.739Z,50.40
2019-05-05T18:55:09.046Z,50.38
2019-05-05T18:57:43.505Z,50.84
2019-05-05T19:00:18.803Z,51.36
2019-05-05T19:02:54.872Z,51.14
2019-05-05T19:05:47.406Z,51.41
2019-05-05T19:08:21.627Z,50.34
2019-05-05T19:10:54.920Z,50.32
2019-05-05T19:13:27.586Z,51.06
2019-05-05T19:16:00.880Z,51.55
2019-05-05T19:18:34.074Z,51.86
2019-05-05T19:21:11.178Z,52.29
2019-05-05T19:23:44.718Z,52.06
2019-05-05T19:26:17.766Z,52.69
2019-05-05T19:28:50.532Z,52.79
2019-05-05T19:31:23.214Z,53.69
2019-05-05T19:33:56.065Z,54.45
2019-05-05T19:36:29.384Z,55.25
2019-05-05T19:39:04.143Z,55.92
2019-05-05T19:41:37.920Z,56.31
2019-05-05T19:44:10.703Z,56.59
2019-05-05T19:46:47.675Z,56.00
2019-05-05T19:49:24.170Z,56.25
2019-05-05T19:51:57.234Z,56.04
2019-05-05T19:54:29.909Z,56.38
2019-05-05T19:57:03.839Z,56.70
2019-05-05T19:59:37.365Z,56.49
2019-05-05T20:02:09.999Z,56.43
2019-05-05T20:04:44.593Z,55.75
2019-05-05T20:07:17.512Z,55.85
2019-05-05T20:09:50.902Z,56.10
2019-05-05T20:12:25.886Z,56.46
2019-05-05T20:15:03.935Z,56.32
2019-05-05T20:17:38.299Z,56.01
2019-05-05T20:20:13.832Z,56.97
2019-05-05T20:22:46.694Z,57.26
2019-05-05T20:25:24.406Z,57.45
2019-05-05T20:28:03.725Z,57.59
2019-05-05T20:30:40.323Z,58.10
2019-05-05T20:33:18.088Z,57.64
2019-05-05T20:35:53.854Z,58.04
2019-05-05T20:38:28.978Z,57.72
2019-05-05T20:41:14.235Z,56.52
2019-05-05T20:43:48.272Z,57.10
2019-05-05T20:46:23.739Z,55.90
2019-05-05T20:48:58.277Z,55.85
2019-05-05T20:51:38.631Z,55.04
2019-05-05T20:54:11.380Z,54.95
2019-05-05T20:56:44.533Z,55.01
2019-05-05T20:59:28.141Z,54.97
2019-05-05T21:01:55.548Z,55.70
2019-05-05T21:04:28.223Z,56.45
2019-05-05T21:07:00.905Z,57.26
2019-05-05T21:09:34.651Z,57.11
2019-05-05T21:12:07.592Z,57.48
2019-05-05T21:14:40.890Z,57.62
2019-05-05T21:17:13.794Z,57.39
2019-05-05T21:19:46.561Z,57.43
2019-05-05T21:22:29.801Z,58.04
2019-05-05T21:25:02.474Z,58.43
2019-05-05T21:27:35.241Z,58.61
2019-05-05T21:30:08.842Z,59.02
2019-05-05T21:32:43.386Z,59.21
2019-05-05T21:35:16.050Z,59.63
2019-05-05T21:37:48.860Z,60.10
2019-05-05T21:40:24.862Z,60.72
2019-05-05T21:42:58.174Z,61.31
2019-05-05T21:45:30.857Z,61.38
2019-05-05T21:48:04.251Z,61.56
2019-05-05T21:50:54.140Z,62.25
2019-05-05T21:53:28.601Z,62.26
2019-05-05T21:56:18.741Z,62.32
2019-05-05T21:58:53.574Z,61.77
2019-05-05T22:01:27.577Z,62.00
2019-05-05T22:04:00.780Z,62.38
2019-05-05T22:06:34.056Z,62.21
2019-05-05T22:09:08.690Z,61.89
2019-05-05T22:11:43.464Z,61.95
2019-05-05T22:14:15.745Z,61.02
2019-05-05T22:16:49.506Z,61.15
2019-05-05T22:19:24.021Z,60.30
2019-05-05T22:21:58.447Z,61.02
2019-05-05T22:24:31.126Z,61.32
2019-05-05T22:27:04.701Z,62.56
2019-05-05T22:29:37.714Z,63.42
2019-05-05T22:32:10.388Z,63.59
2019-05-05T22:34:44.402Z,63.80
2019-05-05T22:37:17.284Z,64.29
2019-05-05T22:39:51.093Z,64.51
2019-05-05T22:42:24.627Z,64.36
2019-05-05T22:44:57.775Z,64.03
2019-05-05T22:47:30.458Z,63.36
2019-05-05T22:50:05.182Z,63.38
2019-05-05T22:52:37.885Z,63.31
2019-05-05T22:55:10.853Z,63.06
2019-05-05T22:57:45.191Z,62.41
2019-05-05T23:00:26.571Z,61.76
2019-05-05T23:03:13.668Z,60.53
2019-05-05T23:05:50.380Z,60.01
2019-05-05T23:08:24.296Z,58.82
2019-05-05T23:10:57.131Z,57.91
2019-05-05T23:13:30.005Z,57.29
2019-05-05T23:16:04.540Z,56.29
2019-05-05T23:18:37.521Z,55.34
2019-05-05T23:21:21.817Z,54.37
2019-05-05T23:24:03.703Z,54.02
2019-05-05T23:26:44.283Z,53.69
2019-05-05T23:29:17.020Z,53.99
2019-05-05T23:31:49.631Z,54.17
2019-05-05T23:34:24.125Z,54.15
2019-05-05T23:36:56.628Z,54.97
2019-05-05T23:39:29.513Z,55.44
2019-05-05T23:42:04.045Z,55.72
2019-05-05T23:44:36.570Z,55.42
2019-05-05T23:47:09.239Z,55.68
2019-05-05T23:49:43.937Z,56.60
2019-05-05T23:52:17.215Z,58.27
2019-05-05T23:54:49.850Z,59.10
2019-05-05T23:57:24.132Z,59.92
2019-05-05T23:59:56.780Z,60.14
